Bayou Vista, Texas
Current Conditions -  °F | °C
As of 3:52 AM on Sunday 23 Nov 2014 (Local Time) from KGLS Reporting Station
Clear Clear  
Wind Chill: 62°   Ceiling: Unl
Heat Index: 62°   Visibility: 10mi
Dew Point: 60°   Wind: 10mph
Humidity: 93%   Direction: 160°SSE
Pressure: 29.64"   Gusts: NA
Location:  29.2947°N, 95.0312°W
Report Text: KGLS 230952Z AUTO 16009KT 10SM CLR 17/16 A2964 RMK AO2 SLP038 T01670156
Loading
Personal Weather Stations






























Interactive Weather Map New forecast layout! Learn more

10-Day Weather Forecast

Advertisements
Track Severe Weather on mobile